sensor_id;sensor_type;location;lat;lon;timestamp;P1;durP1;ratioP1;P2;durP2;ratioP2
7761;SDS011;3925;48.636;9.516;2023-07-30T00:02:14;5.40;;;4.87;;
7761;SDS011;3925;48.636;9.516;2023-07-30T00:04:42;7.20;;;4.27;;
7761;SDS011;3925;48.636;9.516;2023-07-30T00:07:09;4.97;;;4.57;;
7761;SDS011;3925;48.636;9.516;2023-07-30T00:09:37;4.87;;;4.47;;
7761;SDS011;3925;48.636;9.516;2023-07-30T00:12:05;5.60;;;5.13;;
7761;SDS011;3925;48.636;9.516;2023-07-30T00:14:33;6.90;;;4.67;;
7761;SDS011;3925;48.636;9.516;2023-07-30T00:17:00;5.30;;;4.90;;
7761;SDS011;3925;48.636;9.516;2023-07-30T00:19:27;5.20;;;4.80;;
7761;SDS011;3925;48.636;9.516;2023-07-30T00:21:54;5.10;;;4.70;;
7761;SDS011;3925;48.636;9.516;2023-07-30T00:24:21;5.17;;;4.77;;
7761;SDS011;3925;48.636;9.516;2023-07-30T00:26:49;4.50;;;4.10;;
7761;SDS011;3925;48.636;9.516;2023-07-30T00:29:16;4.47;;;4.17;;
7761;SDS011;3925;48.636;9.516;2023-07-30T00:31:43;5.43;;;4.90;;
7761;SDS011;3925;48.636;9.516;2023-07-30T00:34:10;5.20;;;4.70;;
7761;SDS011;3925;48.636;9.516;2023-07-30T00:36:36;6.20;;;4.83;;
7761;SDS011;3925;48.636;9.516;2023-07-30T00:39:03;5.97;;;5.47;;
7761;SDS011;3925;48.636;9.516;2023-07-30T00:41:30;5.23;;;4.73;;
7761;SDS011;3925;48.636;9.516;2023-07-30T00:43:58;6.70;;;5.13;;
7761;SDS011;3925;48.636;9.516;2023-07-30T00:46:25;5.50;;;5.10;;
7761;SDS011;3925;48.636;9.516;2023-07-30T00:48:52;6.40;;;5.80;;
7761;SDS011;3925;48.636;9.516;2023-07-30T00:51:19;5.63;;;4.73;;
7761;SDS011;3925;48.636;9.516;2023-07-30T00:53:46;5.77;;;5.33;;
7761;SDS011;3925;48.636;9.516;2023-07-30T00:56:14;6.10;;;5.50;;
7761;SDS011;3925;48.636;9.516;2023-07-30T00:58:41;4.83;;;4.53;;
7761;SDS011;3925;48.636;9.516;2023-07-30T01:01:11;5.53;;;5.13;;
7761;SDS011;3925;48.636;9.516;2023-07-30T01:03:38;5.07;;;4.70;;
7761;SDS011;3925;48.636;9.516;2023-07-30T01:06:05;5.83;;;5.23;;
7761;SDS011;3925;48.636;9.516;2023-07-30T01:08:32;6.10;;;5.60;;
7761;SDS011;3925;48.636;9.516;2023-07-30T01:11:00;9.17;;;5.10;;
7761;SDS011;3925;48.636;9.516;2023-07-30T01:13:28;9.10;;;5.13;;
7761;SDS011;3925;48.636;9.516;2023-07-30T01:15:56;5.40;;;4.90;;
7761;SDS011;3925;48.636;9.516;2023-07-30T01:18:25;5.57;;;5.07;;
7761;SDS011;3925;48.636;9.516;2023-07-30T01:20:54;7.07;;;5.40;;
7761;SDS011;3925;48.636;9.516;2023-07-30T01:23:24;5.60;;;5.10;;
7761;SDS011;3925;48.636;9.516;2023-07-30T01:25:52;5.53;;;5.03;;
7761;SDS011;3925;48.636;9.516;2023-07-30T01:28:26;6.33;;;5.50;;
7761;SDS011;3925;48.636;9.516;2023-07-30T01:30:55;5.00;;;4.50;;
7761;SDS011;3925;48.636;9.516;2023-07-30T01:33:26;5.20;;;4.70;;
7761;SDS011;3925;48.636;9.516;2023-07-30T01:35:54;5.83;;;5.30;;
7761;SDS011;3925;48.636;9.516;2023-07-30T01:38:23;5.30;;;4.90;;
7761;SDS011;3925;48.636;9.516;2023-07-30T01:40:50;4.80;;;4.30;;
7761;SDS011;3925;48.636;9.516;2023-07-30T01:43:17;5.03;;;4.67;;
7761;SDS011;3925;48.636;9.516;2023-07-30T01:45:44;5.23;;;4.57;;
7761;SDS011;3925;48.636;9.516;2023-07-30T01:48:11;5.67;;;5.17;;
7761;SDS011;3925;48.636;9.516;2023-07-30T01:50:38;4.13;;;3.83;;
7761;SDS011;3925;48.636;9.516;2023-07-30T01:53:06;5.17;;;4.73;;
7761;SDS011;3925;48.636;9.516;2023-07-30T01:55:33;5.03;;;4.60;;
7761;SDS011;3925;48.636;9.516;2023-07-30T01:58:00;4.30;;;4.00;;
7761;SDS011;3925;48.636;9.516;2023-07-30T02:00:27;4.30;;;4.00;;
7761;SDS011;3925;48.636;9.516;2023-07-30T02:02:54;5.00;;;4.53;;
7761;SDS011;3925;48.636;9.516;2023-07-30T02:05:21;4.30;;;4.00;;
7761;SDS011;3925;48.636;9.516;2023-07-30T02:07:47;9.73;;;4.13;;
7761;SDS011;3925;48.636;9.516;2023-07-30T02:10:15;4.00;;;3.80;;
7761;SDS011;3925;48.636;9.516;2023-07-30T02:12:42;4.83;;;3.50;;
7761;SDS011;3925;48.636;9.516;2023-07-30T02:15:09;4.00;;;3.70;;
7761;SDS011;3925;48.636;9.516;2023-07-30T02:17:36;3.83;;;3.43;;
7761;SDS011;3925;48.636;9.516;2023-07-30T02:20:03;4.10;;;3.70;;
7761;SDS011;3925;48.636;9.516;2023-07-30T02:22:31;3.60;;;3.10;;
7761;SDS011;3925;48.636;9.516;2023-07-30T02:24:58;6.00;;;3.83;;
7761;SDS011;3925;48.636;9.516;2023-07-30T02:27:26;3.70;;;3.40;;
7761;SDS011;3925;48.636;9.516;2023-07-30T02:29:53;3.93;;;3.63;;
7761;SDS011;3925;48.636;9.516;2023-07-30T02:32:20;3.73;;;3.43;;
7761;SDS011;3925;48.636;9.516;2023-07-30T02:34:47;4.20;;;3.60;;
7761;SDS011;3925;48.636;9.516;2023-07-30T02:37:14;3.40;;;3.20;;
7761;SDS011;3925;48.636;9.516;2023-07-30T02:39:40;3.93;;;3.63;;
7761;SDS011;3925;48.636;9.516;2023-07-30T02:42:07;3.40;;;3.10;;
7761;SDS011;3925;48.636;9.516;2023-07-30T02:44:36;3.90;;;3.60;;
7761;SDS011;3925;48.636;9.516;2023-07-30T02:47:03;4.17;;;3.80;;
7761;SDS011;3925;48.636;9.516;2023-07-30T02:49:30;3.27;;;3.07;;
7761;SDS011;3925;48.636;9.516;2023-07-30T02:51:57;4.13;;;3.47;;
7761;SDS011;3925;48.636;9.516;2023-07-30T02:54:24;3.80;;;3.03;;
7761;SDS011;3925;48.636;9.516;2023-07-30T02:56:50;4.00;;;3.70;;
7761;SDS011;3925;48.636;9.516;2023-07-30T02:59:17;3.33;;;3.03;;
7761;SDS011;3925;48.636;9.516;2023-07-30T03:01:45;3.13;;;2.90;;
7761;SDS011;3925;48.636;9.516;2023-07-30T03:04:12;3.63;;;3.33;;
7761;SDS011;3925;48.636;9.516;2023-07-30T03:06:39;3.90;;;3.60;;
7761;SDS011;3925;48.636;9.516;2023-07-30T03:09:06;3.20;;;2.90;;
7761;SDS011;3925;48.636;9.516;2023-07-30T03:11:33;3.47;;;3.20;;
7761;SDS011;3925;48.636;9.516;2023-07-30T03:14:00;3.90;;;3.60;;
7761;SDS011;3925;48.636;9.516;2023-07-30T03:16:27;3.43;;;3.13;;
7761;SDS011;3925;48.636;9.516;2023-07-30T03:18:55;3.27;;;3.07;;
7761;SDS011;3925;48.636;9.516;2023-07-30T03:21:21;4.43;;;3.43;;
7761;SDS011;3925;48.636;9.516;2023-07-30T03:23:47;3.30;;;2.80;;
7761;SDS011;3925;48.636;9.516;2023-07-30T03:26:14;3.43;;;3.20;;
7761;SDS011;3925;48.636;9.516;2023-07-30T03:28:41;4.80;;;3.13;;
7761;SDS011;3925;48.636;9.516;2023-07-30T03:31:08;3.43;;;3.13;;
7761;SDS011;3925;48.636;9.516;2023-07-30T03:33:35;3.40;;;2.80;;
7761;SDS011;3925;48.636;9.516;2023-07-30T03:36:05;3.50;;;3.30;;
7761;SDS011;3925;48.636;9.516;2023-07-30T03:38:32;3.70;;;3.40;;
7761;SDS011;3925;48.636;9.516;2023-07-30T03:40:59;3.13;;;2.83;;
7761;SDS011;3925;48.636;9.516;2023-07-30T03:43:26;3.43;;;3.13;;
7761;SDS011;3925;48.636;9.516;2023-07-30T03:45:52;3.77;;;2.80;;
7761;SDS011;3925;48.636;9.516;2023-07-30T03:48:19;3.10;;;2.80;;
7761;SDS011;3925;48.636;9.516;2023-07-30T03:50:46;3.90;;;2.90;;
7761;SDS011;3925;48.636;9.516;2023-07-30T03:53:14;6.10;;;3.60;;
7761;SDS011;3925;48.636;9.516;2023-07-30T03:55:41;2.87;;;2.67;;
7761;SDS011;3925;48.636;9.516;2023-07-30T03:58:08;4.70;;;3.40;;
7761;SDS011;3925;48.636;9.516;2023-07-30T04:00:35;3.23;;;2.93;;
7761;SDS011;3925;48.636;9.516;2023-07-30T04:03:02;3.43;;;3.20;;
7761;SDS011;3925;48.636;9.516;2023-07-30T04:05:29;3.57;;;3.30;;
7761;SDS011;3925;48.636;9.516;2023-07-30T04:07:56;3.17;;;2.97;;
7761;SDS011;3925;48.636;9.516;2023-07-30T04:10:24;3.57;;;3.27;;
7761;SDS011;3925;48.636;9.516;2023-07-30T04:12:51;3.70;;;3.30;;
7761;SDS011;3925;48.636;9.516;2023-07-30T04:15:18;6.43;;;2.53;;
7761;SDS011;3925;48.636;9.516;2023-07-30T04:17:44;3.67;;;3.37;;
7761;SDS011;3925;48.636;9.516;2023-07-30T04:20:11;3.63;;;3.10;;
7761;SDS011;3925;48.636;9.516;2023-07-30T04:22:38;3.87;;;2.83;;
7761;SDS011;3925;48.636;9.516;2023-07-30T04:25:07;3.50;;;3.07;;
7761;SDS011;3925;48.636;9.516;2023-07-30T04:27:37;3.33;;;3.07;;
7761;SDS011;3925;48.636;9.516;2023-07-30T04:30:04;3.30;;;3.10;;
7761;SDS011;3925;48.636;9.516;2023-07-30T04:32:32;2.97;;;2.23;;
7761;SDS011;3925;48.636;9.516;2023-07-30T04:34:59;3.27;;;3.00;;
7761;SDS011;3925;48.636;9.516;2023-07-30T04:37:26;2.83;;;2.43;;
7761;SDS011;3925;48.636;9.516;2023-07-30T04:39:52;2.73;;;2.53;;
7761;SDS011;3925;48.636;9.516;2023-07-30T04:42:19;3.60;;;2.40;;
7761;SDS011;3925;48.636;9.516;2023-07-30T04:44:47;3.37;;;3.07;;
7761;SDS011;3925;48.636;9.516;2023-07-30T04:47:14;4.03;;;3.07;;
7761;SDS011;3925;48.636;9.516;2023-07-30T04:49:41;2.63;;;2.43;;
7761;SDS011;3925;48.636;9.516;2023-07-30T04:52:09;2.77;;;2.67;;
7761;SDS011;3925;48.636;9.516;2023-07-30T04:54:35;2.80;;;2.37;;
7761;SDS011;3925;48.636;9.516;2023-07-30T04:57:03;3.80;;;2.73;;
7761;SDS011;3925;48.636;9.516;2023-07-30T04:59:30;2.30;;;2.10;;
7761;SDS011;3925;48.636;9.516;2023-07-30T05:02:00;5.70;;;2.60;;
7761;SDS011;3925;48.636;9.516;2023-07-30T05:04:26;3.97;;;3.57;;
7761;SDS011;3925;48.636;9.516;2023-07-30T05:06:53;3.30;;;2.50;;
7761;SDS011;3925;48.636;9.516;2023-07-30T05:09:20;2.67;;;2.40;;
7761;SDS011;3925;48.636;9.516;2023-07-30T05:11:47;4.23;;;2.13;;
7761;SDS011;3925;48.636;9.516;2023-07-30T05:14:14;4.50;;;2.50;;
7761;SDS011;3925;48.636;9.516;2023-07-30T05:16:40;2.50;;;2.30;;
7761;SDS011;3925;48.636;9.516;2023-07-30T05:19:09;3.20;;;2.90;;
7761;SDS011;3925;48.636;9.516;2023-07-30T05:21:35;3.00;;;2.70;;
7761;SDS011;3925;48.636;9.516;2023-07-30T05:24:03;2.70;;;2.50;;
7761;SDS011;3925;48.636;9.516;2023-07-30T05:26:30;2.63;;;2.43;;
7761;SDS011;3925;48.636;9.516;2023-07-30T05:28:57;2.80;;;2.60;;
7761;SDS011;3925;48.636;9.516;2023-07-30T05:31:24;3.77;;;2.50;;
7761;SDS011;3925;48.636;9.516;2023-07-30T05:33:51;2.77;;;2.57;;
7761;SDS011;3925;48.636;9.516;2023-07-30T05:36:19;3.03;;;2.50;;
7761;SDS011;3925;48.636;9.516;2023-07-30T05:38:46;2.57;;;2.37;;
7761;SDS011;3925;48.636;9.516;2023-07-30T05:41:13;2.13;;;2.03;;
7761;SDS011;3925;48.636;9.516;2023-07-30T05:43:40;2.90;;;2.70;;
7761;SDS011;3925;48.636;9.516;2023-07-30T05:46:07;2.97;;;2.67;;
7761;SDS011;3925;48.636;9.516;2023-07-30T05:48:34;2.60;;;2.40;;
7761;SDS011;3925;48.636;9.516;2023-07-30T05:51:01;2.20;;;2.00;;
7761;SDS011;3925;48.636;9.516;2023-07-30T05:53:29;2.67;;;2.47;;
7761;SDS011;3925;48.636;9.516;2023-07-30T05:55:56;1.97;;;1.87;;
7761;SDS011;3925;48.636;9.516;2023-07-30T05:58:22;2.17;;;2.07;;
7761;SDS011;3925;48.636;9.516;2023-07-30T06:00:49;2.63;;;2.40;;
7761;SDS011;3925;48.636;9.516;2023-07-30T06:03:16;3.73;;;2.80;;
7761;SDS011;3925;48.636;9.516;2023-07-30T06:05:44;2.70;;;2.00;;
7761;SDS011;3925;48.636;9.516;2023-07-30T06:08:11;2.80;;;2.60;;
7761;SDS011;3925;48.636;9.516;2023-07-30T06:10:39;2.73;;;2.50;;
7761;SDS011;3925;48.636;9.516;2023-07-30T06:13:06;4.13;;;2.80;;
7761;SDS011;3925;48.636;9.516;2023-07-30T06:15:33;3.00;;;2.80;;
7761;SDS011;3925;48.636;9.516;2023-07-30T06:18:00;2.40;;;2.20;;
7761;SDS011;3925;48.636;9.516;2023-07-30T06:20:27;2.47;;;2.10;;
7761;SDS011;3925;48.636;9.516;2023-07-30T06:22:54;2.80;;;2.60;;
7761;SDS011;3925;48.636;9.516;2023-07-30T06:25:21;2.83;;;2.63;;
7761;SDS011;3925;48.636;9.516;2023-07-30T06:27:49;2.90;;;2.70;;
7761;SDS011;3925;48.636;9.516;2023-07-30T06:30:16;2.27;;;2.10;;
7761;SDS011;3925;48.636;9.516;2023-07-30T06:32:43;1.93;;;1.83;;
7761;SDS011;3925;48.636;9.516;2023-07-30T06:35:10;2.40;;;2.30;;
7761;SDS011;3925;48.636;9.516;2023-07-30T06:37:36;2.53;;;2.33;;
7761;SDS011;3925;48.636;9.516;2023-07-30T06:40:04;2.00;;;1.80;;
7761;SDS011;3925;48.636;9.516;2023-07-30T06:42:32;2.57;;;2.37;;
7761;SDS011;3925;48.636;9.516;2023-07-30T06:45:00;2.33;;;1.80;;
7761;SDS011;3925;48.636;9.516;2023-07-30T06:47:27;2.37;;;2.20;;
7761;SDS011;3925;48.636;9.516;2023-07-30T06:49:54;2.13;;;1.90;;
7761;SDS011;3925;48.636;9.516;2023-07-30T06:52:20;2.93;;;1.77;;
7761;SDS011;3925;48.636;9.516;2023-07-30T06:54:47;2.50;;;2.30;;
7761;SDS011;3925;48.636;9.516;2023-07-30T06:57:14;1.93;;;1.83;;
7761;SDS011;3925;48.636;9.516;2023-07-30T06:59:41;3.50;;;2.10;;
7761;SDS011;3925;48.636;9.516;2023-07-30T07:02:09;2.60;;;2.13;;
7761;SDS011;3925;48.636;9.516;2023-07-30T07:04:36;1.90;;;1.80;;
7761;SDS011;3925;48.636;9.516;2023-07-30T07:07:03;2.40;;;2.20;;
7761;SDS011;3925;48.636;9.516;2023-07-30T07:09:30;1.80;;;1.60;;
7761;SDS011;3925;48.636;9.516;2023-07-30T07:11:57;2.47;;;2.03;;
7761;SDS011;3925;48.636;9.516;2023-07-30T07:14:24;1.50;;;1.40;;
7761;SDS011;3925;48.636;9.516;2023-07-30T07:16:52;2.20;;;2.00;;
7761;SDS011;3925;48.636;9.516;2023-07-30T07:19:22;4.40;;;1.93;;
7761;SDS011;3925;48.636;9.516;2023-07-30T07:21:49;2.70;;;1.80;;
7761;SDS011;3925;48.636;9.516;2023-07-30T07:24:15;1.67;;;1.53;;
7761;SDS011;3925;48.636;9.516;2023-07-30T07:26:42;2.40;;;2.20;;
7761;SDS011;3925;48.636;9.516;2023-07-30T07:29:10;2.57;;;2.37;;
7761;SDS011;3925;48.636;9.516;2023-07-30T07:31:36;1.60;;;1.50;;
7761;SDS011;3925;48.636;9.516;2023-07-30T07:34:03;1.70;;;1.60;;
7761;SDS011;3925;48.636;9.516;2023-07-30T07:36:31;1.83;;;1.70;;
7761;SDS011;3925;48.636;9.516;2023-07-30T07:39:00;2.63;;;1.70;;
7761;SDS011;3925;48.636;9.516;2023-07-30T07:41:27;1.90;;;1.80;;
7761;SDS011;3925;48.636;9.516;2023-07-30T07:43:54;1.53;;;1.43;;
7761;SDS011;3925;48.636;9.516;2023-07-30T07:46:22;2.57;;;1.97;;
7761;SDS011;3925;48.636;9.516;2023-07-30T07:48:49;2.17;;;1.97;;
7761;SDS011;3925;48.636;9.516;2023-07-30T07:51:16;2.33;;;2.20;;
7761;SDS011;3925;48.636;9.516;2023-07-30T07:53:44;1.80;;;1.70;;
7761;SDS011;3925;48.636;9.516;2023-07-30T07:56:11;3.10;;;2.23;;
7761;SDS011;3925;48.636;9.516;2023-07-30T07:58:38;2.60;;;2.30;;
7761;SDS011;3925;48.636;9.516;2023-07-30T08:01:05;2.00;;;1.90;;
7761;SDS011;3925;48.636;9.516;2023-07-30T08:03:32;2.57;;;2.17;;
7761;SDS011;3925;48.636;9.516;2023-07-30T08:05:59;1.63;;;1.53;;
7761;SDS011;3925;48.636;9.516;2023-07-30T08:08:26;2.57;;;1.70;;
7761;SDS011;3925;48.636;9.516;2023-07-30T08:10:54;1.77;;;1.63;;
7761;SDS011;3925;48.636;9.516;2023-07-30T08:13:21;1.30;;;1.20;;
7761;SDS011;3925;48.636;9.516;2023-07-30T08:15:48;1.80;;;1.70;;
7761;SDS011;3925;48.636;9.516;2023-07-30T08:18:15;2.70;;;1.67;;
7761;SDS011;3925;48.636;9.516;2023-07-30T08:20:42;1.67;;;1.40;;
7761;SDS011;3925;48.636;9.516;2023-07-30T08:23:09;1.80;;;1.70;;
7761;SDS011;3925;48.636;9.516;2023-07-30T08:25:36;2.00;;;1.90;;
7761;SDS011;3925;48.636;9.516;2023-07-30T08:28:04;2.83;;;1.90;;
7761;SDS011;3925;48.636;9.516;2023-07-30T08:30:31;1.90;;;1.80;;
7761;SDS011;3925;48.636;9.516;2023-07-30T08:32:58;2.33;;;1.77;;
7761;SDS011;3925;48.636;9.516;2023-07-30T08:35:25;2.03;;;1.60;;
7761;SDS011;3925;48.636;9.516;2023-07-30T08:37:53;2.63;;;1.70;;
7761;SDS011;3925;48.636;9.516;2023-07-30T08:40:20;1.87;;;1.47;;
7761;SDS011;3925;48.636;9.516;2023-07-30T08:42:49;1.80;;;1.70;;
7761;SDS011;3925;48.636;9.516;2023-07-30T08:45:18;1.87;;;1.67;;
7761;SDS011;3925;48.636;9.516;2023-07-30T08:47:45;1.70;;;1.37;;
7761;SDS011;3925;48.636;9.516;2023-07-30T08:50:13;1.43;;;1.33;;
7761;SDS011;3925;48.636;9.516;2023-07-30T08:52:40;2.00;;;1.80;;
7761;SDS011;3925;48.636;9.516;2023-07-30T08:55:07;1.40;;;1.30;;
7761;SDS011;3925;48.636;9.516;2023-07-30T08:57:36;4.03;;;1.30;;
7761;SDS011;3925;48.636;9.516;2023-07-30T09:00:05;1.70;;;1.40;;
7761;SDS011;3925;48.636;9.516;2023-07-30T09:02:37;1.43;;;1.23;;
7761;SDS011;3925;48.636;9.516;2023-07-30T09:05:05;1.30;;;1.20;;
7761;SDS011;3925;48.636;9.516;2023-07-30T09:07:33;1.57;;;1.47;;
7761;SDS011;3925;48.636;9.516;2023-07-30T09:09:59;1.70;;;1.60;;
7761;SDS011;3925;48.636;9.516;2023-07-30T09:12:28;1.47;;;1.37;;
7761;SDS011;3925;48.636;9.516;2023-07-30T09:14:56;1.60;;;1.50;;
7761;SDS011;3925;48.636;9.516;2023-07-30T09:17:23;5.57;;;1.13;;
7761;SDS011;3925;48.636;9.516;2023-07-30T09:19:51;1.43;;;1.20;;
7761;SDS011;3925;48.636;9.516;2023-07-30T09:22:24;2.60;;;1.20;;
7761;SDS011;3925;48.636;9.516;2023-07-30T09:24:52;1.87;;;1.17;;
7761;SDS011;3925;48.636;9.516;2023-07-30T09:27:20;1.17;;;1.07;;
7761;SDS011;3925;48.636;9.516;2023-07-30T09:29:50;1.07;;;1.00;;
7761;SDS011;3925;48.636;9.516;2023-07-30T09:32:18;0.90;;;0.90;;
7761;SDS011;3925;48.636;9.516;2023-07-30T09:34:45;0.90;;;0.90;;
7761;SDS011;3925;48.636;9.516;2023-07-30T09:37:14;1.33;;;1.13;;
7761;SDS011;3925;48.636;9.516;2023-07-30T09:39:41;1.20;;;1.10;;
7761;SDS011;3925;48.636;9.516;2023-07-30T09:42:09;1.73;;;1.57;;
7761;SDS011;3925;48.636;9.516;2023-07-30T09:44:37;1.40;;;1.30;;
7761;SDS011;3925;48.636;9.516;2023-07-30T09:47:05;1.37;;;1.27;;
7761;SDS011;3925;48.636;9.516;2023-07-30T09:49:35;1.20;;;1.10;;
7761;SDS011;3925;48.636;9.516;2023-07-30T09:52:04;2.30;;;1.33;;
7761;SDS011;3925;48.636;9.516;2023-07-30T09:54:33;3.30;;;1.10;;
7761;SDS011;3925;48.636;9.516;2023-07-30T09:57:00;2.35;;;1.50;;
7761;SDS011;3925;48.636;9.516;2023-07-30T09:59:29;1.80;;;1.20;;
7761;SDS011;3925;48.636;9.516;2023-07-30T10:01:55;1.60;;;1.50;;
7761;SDS011;3925;48.636;9.516;2023-07-30T10:04:24;1.40;;;1.30;;
7761;SDS011;3925;48.636;9.516;2023-07-30T10:06:55;1.37;;;1.23;;
7761;SDS011;3925;48.636;9.516;2023-07-30T10:09:25;1.70;;;1.60;;
7761;SDS011;3925;48.636;9.516;2023-07-30T10:11:58;2.60;;;1.50;;
7761;SDS011;3925;48.636;9.516;2023-07-30T10:14:26;1.60;;;1.50;;
7761;SDS011;3925;48.636;9.516;2023-07-30T10:16:55;5.10;;;2.00;;
7761;SDS011;3925;48.636;9.516;2023-07-30T10:19:24;4.60;;;2.47;;
7761;SDS011;3925;48.636;9.516;2023-07-30T10:21:53;2.10;;;2.00;;
7761;SDS011;3925;48.636;9.516;2023-07-30T10:24:24;1.93;;;1.70;;
7761;SDS011;3925;48.636;9.516;2023-07-30T10:26:51;3.23;;;1.63;;
7761;SDS011;3925;48.636;9.516;2023-07-30T10:29:24;2.30;;;1.60;;
7761;SDS011;3925;48.636;9.516;2023-07-30T10:31:52;2.60;;;1.90;;
7761;SDS011;3925;48.636;9.516;2023-07-30T10:34:20;1.50;;;1.40;;
7761;SDS011;3925;48.636;9.516;2023-07-30T10:36:48;2.00;;;1.90;;
7761;SDS011;3925;48.636;9.516;2023-07-30T10:39:16;1.40;;;1.30;;
7761;SDS011;3925;48.636;9.516;2023-07-30T10:41:44;1.70;;;1.60;;
7761;SDS011;3925;48.636;9.516;2023-07-30T10:44:19;1.83;;;1.70;;
7761;SDS011;3925;48.636;9.516;2023-07-30T10:46:50;1.77;;;1.60;;
7761;SDS011;3925;48.636;9.516;2023-07-30T10:49:17;1.70;;;1.60;;
7761;SDS011;3925;48.636;9.516;2023-07-30T10:51:44;1.63;;;1.53;;
7761;SDS011;3925;48.636;9.516;2023-07-30T10:54:11;1.50;;;1.40;;
7761;SDS011;3925;48.636;9.516;2023-07-30T10:56:38;6.37;;;1.53;;
7761;SDS011;3925;48.636;9.516;2023-07-30T10:59:06;2.00;;;1.80;;
7761;SDS011;3925;48.636;9.516;2023-07-30T11:01:37;1.70;;;1.60;;
7761;SDS011;3925;48.636;9.516;2023-07-30T11:04:06;1.87;;;1.77;;
7761;SDS011;3925;48.636;9.516;2023-07-30T11:06:35;3.50;;;1.57;;
7761;SDS011;3925;48.636;9.516;2023-07-30T11:09:03;2.17;;;1.67;;
7761;SDS011;3925;48.636;9.516;2023-07-30T11:11:30;1.90;;;1.73;;
7761;SDS011;3925;48.636;9.516;2023-07-30T11:13:57;2.30;;;1.53;;
7761;SDS011;3925;48.636;9.516;2023-07-30T11:16:24;1.80;;;1.70;;
7761;SDS011;3925;48.636;9.516;2023-07-30T11:18:53;2.60;;;1.67;;
7761;SDS011;3925;48.636;9.516;2023-07-30T11:21:20;2.03;;;1.70;;
7761;SDS011;3925;48.636;9.516;2023-07-30T11:23:46;1.70;;;1.60;;
7761;SDS011;3925;48.636;9.516;2023-07-30T11:26:14;1.60;;;1.50;;
7761;SDS011;3925;48.636;9.516;2023-07-30T11:28:42;3.07;;;1.63;;
7761;SDS011;3925;48.636;9.516;2023-07-30T11:31:11;1.50;;;1.33;;
7761;SDS011;3925;48.636;9.516;2023-07-30T11:33:40;1.80;;;1.67;;
7761;SDS011;3925;48.636;9.516;2023-07-30T11:36:11;2.13;;;1.87;;
7761;SDS011;3925;48.636;9.516;2023-07-30T11:38:41;1.57;;;1.33;;
7761;SDS011;3925;48.636;9.516;2023-07-30T11:41:08;2.53;;;1.70;;
7761;SDS011;3925;48.636;9.516;2023-07-30T11:43:37;3.40;;;1.50;;
7761;SDS011;3925;48.636;9.516;2023-07-30T11:46:09;2.70;;;1.67;;
7761;SDS011;3925;48.636;9.516;2023-07-30T11:48:38;1.97;;;1.40;;
7761;SDS011;3925;48.636;9.516;2023-07-30T11:51:06;1.97;;;1.73;;
7761;SDS011;3925;48.636;9.516;2023-07-30T11:53:48;2.37;;;2.17;;
7761;SDS011;3925;48.636;9.516;2023-07-30T11:56:17;1.97;;;1.67;;
7761;SDS011;3925;48.636;9.516;2023-07-30T11:58:48;2.33;;;1.47;;
7761;SDS011;3925;48.636;9.516;2023-07-30T12:01:16;2.13;;;1.73;;
7761;SDS011;3925;48.636;9.516;2023-07-30T12:03:43;3.40;;;1.87;;
7761;SDS011;3925;48.636;9.516;2023-07-30T12:06:10;2.00;;;1.67;;
7761;SDS011;3925;48.636;9.516;2023-07-30T12:08:38;2.30;;;1.60;;
7761;SDS011;3925;48.636;9.516;2023-07-30T12:11:09;2.93;;;1.90;;
7761;SDS011;3925;48.636;9.516;2023-07-30T12:13:42;2.27;;;2.00;;
7761;SDS011;3925;48.636;9.516;2023-07-30T12:16:15;1.97;;;1.87;;
7761;SDS011;3925;48.636;9.516;2023-07-30T12:18:42;2.63;;;2.43;;
7761;SDS011;3925;48.636;9.516;2023-07-30T12:21:09;3.20;;;2.00;;
7761;SDS011;3925;48.636;9.516;2023-07-30T12:23:37;2.03;;;1.93;;
7761;SDS011;3925;48.636;9.516;2023-07-30T12:26:04;2.50;;;2.30;;
7761;SDS011;3925;48.636;9.516;2023-07-30T12:28:33;2.70;;;2.30;;
7761;SDS011;3925;48.636;9.516;2023-07-30T12:31:00;2.30;;;2.03;;
7761;SDS011;3925;48.636;9.516;2023-07-30T12:33:27;2.10;;;2.00;;
7761;SDS011;3925;48.636;9.516;2023-07-30T12:35:54;3.90;;;1.83;;
7761;SDS011;3925;48.636;9.516;2023-07-30T12:38:21;2.37;;;2.17;;
7761;SDS011;3925;48.636;9.516;2023-07-30T12:40:48;1.80;;;1.70;;
7761;SDS011;3925;48.636;9.516;2023-07-30T12:43:15;2.30;;;2.10;;
7761;SDS011;3925;48.636;9.516;2023-07-30T12:45:45;2.60;;;2.10;;
7761;SDS011;3925;48.636;9.516;2023-07-30T12:48:12;2.20;;;2.00;;
7761;SDS011;3925;48.636;9.516;2023-07-30T12:50:39;2.00;;;1.90;;
7761;SDS011;3925;48.636;9.516;2023-07-30T12:53:06;4.07;;;2.20;;
7761;SDS011;3925;48.636;9.516;2023-07-30T12:55:33;2.90;;;2.53;;
7761;SDS011;3925;48.636;9.516;2023-07-30T12:57:59;2.40;;;2.20;;
7761;SDS011;3925;48.636;9.516;2023-07-30T13:00:26;2.70;;;2.50;;
7761;SDS011;3925;48.636;9.516;2023-07-30T13:02:54;1.70;;;1.60;;
7761;SDS011;3925;48.636;9.516;2023-07-30T13:05:22;3.33;;;1.97;;
7761;SDS011;3925;48.636;9.516;2023-07-30T13:07:49;3.03;;;2.30;;
7761;SDS011;3925;48.636;9.516;2023-07-30T13:10:16;2.50;;;2.30;;
7761;SDS011;3925;48.636;9.516;2023-07-30T13:12:43;2.90;;;2.10;;
7761;SDS011;3925;48.636;9.516;2023-07-30T13:15:10;5.30;;;1.80;;
7761;SDS011;3925;48.636;9.516;2023-07-30T13:17:37;1.90;;;1.80;;
7761;SDS011;3925;48.636;9.516;2023-07-30T13:20:06;2.30;;;2.10;;
7761;SDS011;3925;48.636;9.516;2023-07-30T13:22:33;1.90;;;1.80;;
7761;SDS011;3925;48.636;9.516;2023-07-30T13:25:00;2.77;;;2.50;;
7761;SDS011;3925;48.636;9.516;2023-07-30T13:27:27;2.50;;;2.30;;
7761;SDS011;3925;48.636;9.516;2023-07-30T13:29:54;3.20;;;2.17;;
7761;SDS011;3925;48.636;9.516;2023-07-30T13:32:21;2.80;;;2.10;;
7761;SDS011;3925;48.636;9.516;2023-07-30T13:34:47;2.70;;;2.00;;
7761;SDS011;3925;48.636;9.516;2023-07-30T13:37:16;2.23;;;1.73;;
